Adolph, MN

7:23 PM CST on December 10, 2016 (GMT -0600)
Windy Hill | | Change Station
Active Advisory: Winter Weather Advisory

Elev 1303 ft 46.78 °N, 92.25 °W | Updated 1 second ago

Mostly Cloudy
Mostly Cloudy
0.0 °F
Feels Like 0 °F
N
2.7
Wind Variable Wind from NE

Today
High -- | Low -- °F
--% Chance of Precip.
Yesterday
High -- | Low -- °F
Precip. -- in
Pressure 30.35 in
Visibility 10.0 miles
Clouds Few 2500 ft
Few 11000 ft
Windchill 0 °F
Dew Point -4 °F
Humidity 84%
Rainfall 0.00 in
Snow Depth Not available.
7:43 AM 4:20 PM
Waxing Gibbous, 87% visible
METAR KDLH 110055Z 02004KT 10SM FEW025 FEW110 M17/M20 A3023 RMK AO2 SLP278 T11721200
Pressure 30.35 in
Visibility 10.0 miles
Clouds Few 2500 ft
Few 11000 ft
Windchill 0 °F
Dew Point -4 °F
Humidity 84%
Rainfall 0.00 in
Snow Depth Not available.
7:43 AM 4:20 PM
Waxing Gibbous, 87% visible
METAR KDLH 110055Z 02004KT 10SM FEW025 FEW110 M17/M20 A3023 RMK AO2 SLP278 T11721200

10-Day Weather Forecast

Almanac

Astronomy

Dec. 10, 2016 Rise Set
Actual Time
Civil Twilight
Nautical Twilight
Astronomical Twilight
Moon
Length of Visible Light
Length of Day
Tomorrow will be .
, % of the Moon is Illuminated

Today's Extremes

State Highs State Lows

Community

WunderPhotos

Upload Photos

1,956,686 photos uploaded!

WunderBlog® & News

Nearby

Air Quality

  Air Quality AQ Index Pollutant
Not available.

Snow Depth

Station Depth Elevation

Earthquake Activity

City Distance Mag. Time & Date
Minimum magnitude displayed is 2.5.

Coastal Water Temperatures

Place Temperature

Stations

Nearby Weather Stations

Station Location Temp. Windchill Dew Point Humidity Wind Precip. Elev Updated Type
                   

Watches & Warnings

Winter Weather Advisory
Issued: 2:52 PM CST Dec. 10, 2016 – National Weather Service

... Winter Weather Advisory in effect from midnight tonight to
9 PM CST Sunday...

The National Weather Service in Duluth has issued a Winter
Weather Advisory for snow... which is in effect from midnight
tonight to 9 PM CST Sunday.

* Locations... the Interstate 35 and Highway 53 corridors in east
central Minnesota and northwest Wisconsin... including the twin
ports... Hinckley and Spooner.

* Timing... late tonight through Sunday evening.

* Snow accumulations... 3 to 5 inches.

* Winds... east around 5 mph.

* Visibilities... between a mile and a half mile at times.

* Impacts... snow and ice covered roads will make for slippery roads
hazardous driving conditions.

Precautionary/preparedness actions...

Be prepared for snow and ice covered roads and reduced
visibility. Use extra caution while driving. Allow extra space
between you and the vehicle in front of you... and allow plenty of
extra time to reach your destination. Keep water and a winter
survival kit in your vehicle.